Time;durP1;ratioP1;P1;durP2;ratioP2;P2;SDS_P1;SDS_P2;PMS_P1;PMS_P2;Temp;Humidity;BMP_temperature;BMP_pressure;BME280_temperature;BME280_humidity;BME280_pressure;Samples;Min_cycle;Max_cycle;Signal;HPM_P1;HPM_P2
2023/02/10 00:01:07;;;;;;;20.50;8.20;;;0.20;76.20;;;;;;5068104;28;20044;-55
2023/02/10 00:03:33;;;;;;;19.75;8.23;;;0.20;76.30;;;;;;5075220;28;20024;-55
2023/02/10 00:05:59;;;;;;;20.35;7.57;;;0.20;76.10;;;;;;5070812;28;20055;-56
2023/02/10 00:08:25;;;;;;;19.38;8.93;;;0.20;76.20;;;;;;5058241;28;20037;-53
2023/02/10 00:10:50;;;;;;;15.95;8.00;;;0.10;76.20;;;;;;5069215;28;20090;-54
2023/02/10 00:13:16;;;;;;;20.48;8.68;;;0.10;76.10;;;;;;5067066;28;20115;-53
2023/02/10 00:15:41;;;;;;;15.90;8.02;;;0.10;76.40;;;;;;5071671;28;20120;-55
2023/02/10 00:18:07;;;;;;;16.10;7.55;;;0.20;76.70;;;;;;5068262;28;20040;-53
2023/02/10 00:20:33;;;;;;;18.10;8.60;;;0.20;76.60;;;;;;5074476;28;20045;-54
2023/02/10 00:22:59;;;;;;;16.20;8.70;;;0.20;76.40;;;;;;5068062;28;20225;-55
2023/02/10 00:25:24;;;;;;;14.65;8.00;;;0.30;76.40;;;;;;5069126;28;20044;-55
2023/02/10 00:27:50;;;;;;;17.70;7.97;;;0.30;76.40;;;;;;5070683;28;20069;-56
2023/02/10 00:30:15;;;;;;;17.27;7.60;;;0.40;76.30;;;;;;5083647;28;20246;-54
2023/02/10 00:32:41;;;;;;;15.77;7.80;;;0.50;76.20;;;;;;5065163;28;20503;-51
2023/02/10 00:35:07;;;;;;;15.60;7.80;;;0.50;75.90;;;;;;5069230;28;20012;-51
2023/02/10 00:37:33;;;;;;;22.02;9.02;;;0.50;75.70;;;;;;5086816;28;20052;-56
2023/02/10 00:39:58;;;;;;;19.95;8.68;;;0.50;75.30;;;;;;5069602;28;20141;-54
2023/02/10 00:42:24;;;;;;;16.10;7.65;;;0.60;74.90;;;;;;5086632;28;20172;-55
2023/02/10 00:44:50;;;;;;;22.73;8.25;;;0.60;74.80;;;;;;5069469;28;20041;-55
2023/02/10 00:47:16;;;;;;;18.02;8.85;;;0.60;74.80;;;;;;5086759;28;20039;-56
2023/02/10 00:49:41;;;;;;;19.65;8.15;;;0.60;74.80;;;;;;5069581;28;20093;-54
2023/02/10 00:52:07;;;;;;;20.42;8.07;;;0.60;74.60;;;;;;5086529;28;20020;-55
2023/02/10 00:54:32;;;;;;;19.17;8.38;;;0.60;74.40;;;;;;5089098;28;20129;-53
2023/02/10 00:56:58;;;;;;;20.20;8.60;;;0.50;74.40;;;;;;5067174;28;20365;-52
2023/02/10 00:59:23;;;;;;;15.10;7.97;;;0.40;74.40;;;;;;5068597;28;20052;-56
2023/02/10 01:01:49;;;;;;;20.85;8.50;;;0.40;74.60;;;;;;5086117;28;20205;-56
2023/02/10 01:04:14;;;;;;;20.23;9.38;;;0.20;74.70;;;;;;5089072;28;20096;-56
2023/02/10 01:06:40;;;;;;;18.33;8.20;;;0.20;75.20;;;;;;5061809;28;20511;-56
2023/02/10 01:09:06;;;;;;;19.35;8.48;;;0.10;75.00;;;;;;5068892;28;20130;-55
2023/02/10 01:11:31;;;;;;;22.00;8.32;;;0.10;75.50;;;;;;5086312;28;20688;-52
2023/02/10 01:13:57;;;;;;;20.13;8.50;;;0.00;76.40;;;;;;5089021;28;20024;-55
2023/02/10 01:16:22;;;;;;;19.70;8.10;;;0.00;76.90;;;;;;5067396;28;20025;-55
2023/02/10 01:18:48;;;;;;;19.13;8.48;;;0.10;77.60;;;;;;5068752;28;20121;-54
2023/02/10 01:21:18;;;;;;;20.35;8.27;;;0.10;77.80;;;;;;5079326;28;20037;-53
2023/02/10 01:23:45;;;;;;;19.08;8.60;;;0.10;77.90;;;;;;5056265;28;20036;-53
2023/02/10 01:26:11;;;;;;;20.05;8.48;;;0.20;77.60;;;;;;5088302;28;20031;-54
2023/02/10 01:28:38;;;;;;;17.20;8.25;;;0.30;77.90;;;;;;5066463;28;20484;-54
2023/02/10 01:31:17;;;;;;;26.48;9.85;;;0.30;77.70;;;;;;5068072;28;20029;-55
2023/02/10 01:33:43;;;;;;;17.20;8.27;;;0.40;77.80;;;;;;5051038;28;20025;-55
2023/02/10 01:36:12;;;;;;;21.90;8.75;;;0.50;77.90;;;;;;5075181;28;20100;-56
2023/02/10 01:38:37;;;;;;;20.58;9.30;;;0.50;77.90;;;;;;5086538;28;20696;-54
2023/02/10 01:41:04;;;;;;;25.27;9.23;;;0.50;77.80;;;;;;5088417;28;20031;-55
2023/02/10 01:43:31;;;;;;;17.52;9.23;;;0.60;78.10;;;;;;5066382;28;20476;-55
2023/02/10 01:45:56;;;;;;;19.42;9.88;;;0.60;78.30;;;;;;5068252;28;20052;-55
2023/02/10 01:48:24;;;;;;;22.38;9.75;;;0.60;78.10;;;;;;5085538;28;20107;-55
2023/02/10 01:51:05;;;;;;;20.83;9.50;;;0.60;78.30;;;;;;5068387;28;20075;-54
2023/02/10 01:53:31;;;;;;;17.23;9.02;;;0.60;78.10;;;;;;5074482;28;20031;-55
2023/02/10 01:56:00;;;;;;;22.08;9.52;;;0.60;78.10;;;;;;5078251;28;20036;-55
2023/02/10 01:58:29;;;;;;;23.58;9.70;;;0.50;78.20;;;;;;5085935;28;20024;-55
2023/02/10 02:00:54;;;;;;;27.92;10.27;;;0.50;78.10;;;;;;5067805;28;20067;-53
2023/02/10 02:03:20;;;;;;;21.85;10.45;;;0.40;78.10;;;;;;5074009;28;20064;-70
2023/02/10 02:05:45;;;;;;;23.05;10.57;;;0.40;78.30;;;;;;5065371;28;20029;-64
2023/02/10 02:08:22;;;;;;;21.10;9.43;;;0.30;78.70;;;;;;5068147;28;20036;-51
2023/02/10 02:11:21;;;;;;;22.85;10.55;;;0.20;78.70;;;;;;5065988;28;20508;-54
2023/02/10 02:14:15;;;;;;;22.38;9.00;;;0.20;79.20;;;;;;5071089;28;20093;-49
2023/02/10 02:16:49;;;;;;;24.35;10.00;;;0.10;79.80;;;;;;5075342;28;20046;-45
2023/02/10 02:19:45;;;;;;;19.15;9.05;;;0.10;79.80;;;;;;5069484;28;20039;-46
2023/02/10 02:22:40;;;;;;;23.85;9.77;;;-0.10;79.90;;;;;;5078512;28;20040;-48
2023/02/10 02:25:31;;;;;;;20.98;9.05;;;-0.20;79.80;;;;;;5060750;28;20020;-47
2023/02/10 02:28:23;;;;;;;28.38;11.38;;;-0.30;80.10;;;;;;5071154;28;20042;-48
2023/02/10 02:31:25;;;;;;;17.77;8.80;;;-0.40;80.30;;;;;;5091713;28;20075;-47
2023/02/10 02:34:35;;;;;;;18.42;7.35;;;-0.40;80.40;;;;;;5051409;28;20166;-49
2023/02/10 02:37:27;;;;;;;20.40;9.32;;;-0.60;81.10;;;;;;5039212;28;20216;-47
2023/02/10 02:39:53;;;;;;;22.30;9.85;;;-0.70;81.40;;;;;;5069441;28;20052;-48
2023/02/10 02:42:22;;;;;;;20.92;9.52;;;-0.70;81.80;;;;;;5070772;28;20402;-47
2023/02/10 02:44:55;;;;;;;25.23;9.65;;;-0.80;81.90;;;;;;5089079;28;20039;-47
2023/02/10 02:47:46;;;;;;;18.05;7.45;;;-0.90;82.00;;;;;;5091138;28;20020;-46
2023/02/10 02:50:35;;;;;;;23.50;9.70;;;-0.90;83.00;;;;;;5056970;28;20039;-48
2023/02/10 02:53:22;;;;;;;19.85;8.82;;;-0.90;84.00;;;;;;5091183;28;20213;-47
2023/02/10 02:56:00;;;;;;;20.98;8.40;;;-0.90;84.40;;;;;;5064992;28;20030;-48
2023/02/10 02:58:44;;;;;;;19.98;8.25;;;-0.80;85.40;;;;;;5050953;28;20025;-48
2023/02/10 03:01:14;;;;;;;18.58;8.02;;;-0.80;85.70;;;;;;5064414;28;20021;-50
2023/02/10 03:03:40;;;;;;;17.65;8.07;;;-0.70;87.20;;;;;;5068842;28;20073;-50
2023/02/10 03:06:06;;;;;;;19.98;8.38;;;-0.70;88.00;;;;;;5074294;28;20304;-48
2023/02/10 03:08:34;;;;;;;23.95;9.13;;;-0.60;89.30;;;;;;5069786;28;20095;-46
2023/02/10 03:10:59;;;;;;;20.52;9.43;;;-0.60;89.00;;;;;;5088899;28;20028;-50
2023/02/10 03:13:25;;;;;;;21.90;9.32;;;-0.50;90.50;;;;;;5069482;28;20103;-50
2023/02/10 03:15:50;;;;;;;24.77;10.75;;;-0.50;90.50;;;;;;5081918;28;20059;-50
2023/02/10 03:18:16;;;;;;;23.52;10.00;;;-0.40;90.10;;;;;;5069165;28;20075;-49
2023/02/10 03:20:43;;;;;;;20.55;9.10;;;-0.40;90.50;;;;;;5069620;28;20032;-46
2023/02/10 03:23:09;;;;;;;16.58;7.97;;;-0.30;91.20;;;;;;5088077;28;20697;-50
2023/02/10 03:25:35;;;;;;;17.23;9.10;;;-0.30;91.30;;;;;;5070899;28;20032;-46
2023/02/10 03:28:00;;;;;;;21.95;9.68;;;-0.20;91.50;;;;;;5086453;28;20020;-46
2023/02/10 03:30:26;;;;;;;19.70;8.52;;;-0.20;91.30;;;;;;5090601;28;20039;-50
2023/02/10 03:32:53;;;;;;;24.40;10.50;;;-0.10;92.60;;;;;;5068731;28;20036;-49
2023/02/10 03:35:18;;;;;;;22.70;9.65;;;-0.10;92.20;;;;;;5070453;28;20029;-48
2023/02/10 03:37:44;;;;;;;19.77;9.48;;;0.00;91.80;;;;;;5087749;28;20028;-47
2023/02/10 03:40:10;;;;;;;22.85;9.55;;;0.00;91.60;;;;;;5090304;28;20036;-47
2023/02/10 03:42:35;;;;;;;23.88;10.23;;;0.10;91.60;;;;;;5068337;28;20029;-44
2023/02/10 03:45:01;;;;;;;20.42;9.35;;;0.10;91.60;;;;;;5070110;28;20046;-45
2023/02/10 03:47:26;;;;;;;17.92;8.77;;;0.20;91.10;;;;;;5087468;28;20071;-49
2023/02/10 03:49:52;;;;;;;25.55;9.93;;;0.10;91.30;;;;;;5090233;28;20031;-48
2023/02/10 03:52:17;;;;;;;21.27;9.82;;;0.20;90.80;;;;;;5068387;28;20440;-52
2023/02/10 03:54:43;;;;;;;25.05;10.50;;;0.20;91.80;;;;;;5069827;28;20024;-47
2023/02/10 03:57:10;;;;;;;17.65;8.32;;;0.20;92.20;;;;;;5087495;28;20036;-49
2023/02/10 03:59:36;;;;;;;22.95;10.15;;;0.20;92.00;;;;;;5089953;28;20505;-45
2023/02/10 04:02:01;;;;;;;26.67;10.48;;;0.20;91.80;;;;;;5070060;28;20037;-50
2023/02/10 04:04:27;;;;;;;21.48;9.45;;;0.20;92.10;;;;;;5068260;28;20036;-48
2023/02/10 04:06:52;;;;;;;25.88;12.20;;;0.20;92.10;;;;;;5081799;28;20053;-51
2023/02/10 04:09:18;;;;;;;25.10;11.18;;;0.30;93.00;;;;;;5087941;28;20107;-45
2023/02/10 04:11:43;;;;;;;22.75;10.95;;;0.30;92.60;;;;;;5069868;28;20024;-48
2023/02/10 04:14:09;;;;;;;23.33;10.60;;;0.30;93.40;;;;;;5078935;28;20060;-49
2023/02/10 04:16:34;;;;;;;20.45;9.88;;;0.30;93.10;;;;;;5076150;28;20028;-48
2023/02/10 04:19:00;;;;;;;20.95;9.30;;;0.40;93.70;;;;;;5087596;28;20027;-45
2023/02/10 04:21:25;;;;;;;23.33;10.70;;;0.40;92.80;;;;;;5069552;28;20492;-49
2023/02/10 04:23:52;;;;;;;22.67;10.07;;;0.40;93.70;;;;;;5086772;28;20048;-45
2023/02/10 04:26:17;;;;;;;28.23;12.25;;;0.40;93.10;;;;;;5072361;28;20031;-46
2023/02/10 04:28:43;;;;;;;32.13;13.80;;;0.40;93.30;;;;;;5069077;28;20032;-46
2023/02/10 04:31:09;;;;;;;32.38;13.35;;;0.40;93.40;;;;;;5086524;28;20055;-48
2023/02/10 04:33:35;;;;;;;35.30;13.77;;;0.50;93.30;;;;;;5088944;28;20031;-47
2023/02/10 04:36:02;;;;;;;31.48;14.05;;;0.40;93.10;;;;;;5075969;28;20081;-46
2023/02/10 04:38:28;;;;;;;31.17;15.20;;;0.40;93.10;;;;;;5067747;28;20060;-48
2023/02/10 04:40:54;;;;;;;30.20;13.35;;;0.30;92.90;;;;;;5088448;28;20024;-47
2023/02/10 04:43:20;;;;;;;71.88;18.02;;;0.20;92.50;;;;;;5050302;28;20048;-45
2023/02/10 04:45:46;;;;;;;42.25;14.77;;;0.30;93.40;;;;;;5087248;28;20506;-48
2023/02/10 04:48:13;;;;;;;37.85;15.05;;;0.20;93.50;;;;;;5078159;28;20059;-47
2023/02/10 04:50:39;;;;;;;31.02;13.77;;;0.20;93.70;;;;;;5083688;28;20028;-46
2023/02/10 04:53:05;;;;;;;26.35;12.23;;;0.30;94.40;;;;;;5069135;28;20383;-48
2023/02/10 04:55:30;;;;;;;33.22;13.35;;;0.30;95.60;;;;;;5086404;28;20043;-47
2023/02/10 04:57:56;;;;;;;33.42;13.70;;;0.30;95.00;;;;;;5066653;28;20347;-47
2023/02/10 05:00:22;;;;;;;34.10;13.32;;;0.30;96.40;;;;;;5088115;28;20529;-48
2023/02/10 05:02:47;;;;;;;31.52;14.27;;;0.30;96.40;;;;;;5048208;28;20029;-49
2023/02/10 05:05:13;;;;;;;26.35;11.57;;;0.30;96.50;;;;;;5065725;28;20035;-48
2023/02/10 05:07:39;;;;;;;26.75;11.98;;;0.30;96.00;;;;;;5066861;28;20045;-48
2023/02/10 05:10:05;;;;;;;30.08;13.10;;;0.30;96.50;;;;;;5088141;28;20106;-48
2023/02/10 05:12:30;;;;;;;31.73;14.50;;;0.30;96.50;;;;;;5067197;28;20449;-46
2023/02/10 05:14:56;;;;;;;31.83;14.85;;;0.30;98.10;;;;;;5088189;28;20524;-47
2023/02/10 05:17:21;;;;;;;31.90;12.63;;;0.40;97.20;;;;;;5067349;28;20035;-49
2023/02/10 05:19:46;;;;;;;27.38;11.27;;;0.40;96.40;;;;;;5088054;28;20114;-47
2023/02/10 05:22:12;;;;;;;28.83;13.25;;;0.50;96.90;;;;;;5066920;28;20044;-45
2023/02/10 05:24:38;;;;;;;25.60;13.15;;;0.50;96.70;;;;;;5088040;28;20103;-47
2023/02/10 05:27:03;;;;;;;31.75;14.10;;;0.50;97.00;;;;;;5067054;28;20016;-46
2023/02/10 05:29:29;;;;;;;29.23;13.95;;;0.50;98.00;;;;;;5068464;28;20033;-48
2023/02/10 05:31:54;;;;;;;39.05;16.23;;;0.40;98.50;;;;;;5085688;28;20024;-48
2023/02/10 05:34:20;;;;;;;31.27;14.38;;;0.40;99.00;;;;;;5084564;28;20023;-52
2023/02/10 05:36:45;;;;;;;33.80;15.30;;;0.40;98.30;;;;;;5066512;28;20035;-48
2023/02/10 05:39:24;;;;;;;31.27;12.80;;;0.40;98.20;;;;;;5068470;28;20028;-49
2023/02/10 05:41:54;;;;;;;34.75;14.88;;;0.40;98.70;;;;;;5056609;28;20054;-48
2023/02/10 05:44:20;;;;;;;29.90;13.05;;;0.40;98.00;;;;;;5076638;28;20496;-48
2023/02/10 05:46:45;;;;;;;30.35;14.07;;;0.40;98.40;;;;;;5067210;28;20032;-50
2023/02/10 05:49:11;;;;;;;32.33;14.00;;;0.50;98.60;;;;;;5069001;28;20635;-50
2023/02/10 05:51:37;;;;;;;31.17;12.77;;;0.40;99.60;;;;;;5087775;28;20032;-48
2023/02/10 05:54:02;;;;;;;28.23;12.45;;;0.40;99.90;;;;;;5051201;28;20562;-50
2023/02/10 05:56:28;;;;;;;35.60;14.30;;;0.40;99.70;;;;;;5068611;28;20098;-48
2023/02/10 05:58:54;;;;;;;33.17;14.00;;;0.40;99.50;;;;;;5071784;28;20112;-46
2023/02/10 06:01:19;;;;;;;33.22;13.20;;;0.30;99.90;;;;;;5087514;28;20066;-52
2023/02/10 06:03:45;;;;;;;36.33;15.38;;;0.30;99.70;;;;;;5053425;28;20087;-49
2023/02/10 06:06:10;;;;;;;37.45;15.57;;;0.20;99.90;;;;;;5061885;28;20029;-70
2023/02/10 06:08:36;;;;;;;39.88;14.85;;;0.20;99.90;;;;;;5085748;28;20043;-69
2023/02/10 06:11:01;;;;;;;35.92;14.65;;;0.20;99.90;;;;;;5068295;28;20554;-70
2023/02/10 06:13:27;;;;;;;38.58;15.85;;;0.10;99.90;;;;;;5066748;28;20108;-70
2023/02/10 06:15:53;;;;;;;42.70;15.77;;;0.00;99.90;;;;;;5087064;28;20033;-52
2023/02/10 06:18:18;;;;;;;45.55;16.13;;;0.00;99.90;;;;;;5048975;28;20033;-50
2023/02/10 06:20:47;;;;;;;29.98;13.63;;;0.00;99.90;;;;;;5066745;28;20091;-55
2023/02/10 06:23:13;;;;;;;28.67;14.65;;;-0.10;99.90;;;;;;5068739;28;20029;-56
2023/02/10 06:25:39;;;;;;;39.53;15.85;;;-0.10;99.90;;;;;;5087529;28;20032;-55
2023/02/10 06:28:05;;;;;;;49.05;17.13;;;-0.10;99.90;;;;;;5050857;28;20108;-57
2023/02/10 06:30:30;;;;;;;37.35;15.10;;;-0.20;99.90;;;;;;5066827;28;20048;-56
2023/02/10 06:32:56;;;;;;;33.13;14.60;;;-0.20;99.90;;;;;;5070943;28;20044;-56
2023/02/10 06:35:21;;;;;;;32.88;12.80;;;-0.30;99.90;;;;;;5086964;28;20032;-57
2023/02/10 06:37:47;;;;;;;35.03;13.63;;;-0.30;99.90;;;;;;5051738;28;20048;-56
2023/02/10 06:40:13;;;;;;;40.50;16.05;;;-0.30;99.90;;;;;;5066823;28;20671;-56
2023/02/10 06:42:39;;;;;;;37.83;14.80;;;-0.30;99.90;;;;;;5053659;28;20044;-55
2023/02/10 06:45:05;;;;;;;40.15;16.58;;;-0.30;99.90;;;;;;5051030;28;20114;-56
2023/02/10 06:47:30;;;;;;;34.20;15.00;;;-0.30;99.90;;;;;;5066692;28;20035;-56
2023/02/10 06:49:56;;;;;;;42.35;15.82;;;-0.30;99.90;;;;;;5071729;28;20025;-54
2023/02/10 06:52:24;;;;;;;46.72;16.30;;;-0.30;99.90;;;;;;5086611;28;20028;-56
2023/02/10 06:54:49;;;;;;;41.47;17.10;;;-0.30;99.90;;;;;;5052280;28;20025;-53
2023/02/10 06:57:15;;;;;;;40.17;16.38;;;-0.30;99.90;;;;;;5068204;28;20036;-54
2023/02/10 06:59:40;;;;;;;46.95;17.58;;;-0.30;99.90;;;;;;5088498;28;20308;-54
2023/02/10 07:02:09;;;;;;;37.63;16.10;;;-0.20;99.90;;;;;;5069211;28;20125;-57
2023/02/10 07:04:34;;;;;;;38.53;16.05;;;-0.20;99.90;;;;;;5072613;28;20476;-56
2023/02/10 07:07:00;;;;;;;39.20;16.45;;;-0.20;99.90;;;;;;5078818;28;20099;-55
2023/02/10 07:09:26;;;;;;;37.78;16.55;;;-0.10;99.90;;;;;;5051359;28;20047;-55
2023/02/10 07:11:51;;;;;;;40.95;16.88;;;0.00;99.90;;;;;;5068329;28;20042;-56
2023/02/10 07:14:17;;;;;;;40.00;15.82;;;0.10;99.90;;;;;;5070970;28;20024;-55
2023/02/10 07:16:42;;;;;;;43.78;16.95;;;0.10;99.90;;;;;;5090352;28;20097;-55
2023/02/10 07:19:08;;;;;;;40.75;15.82;;;0.20;99.90;;;;;;5089328;28;20403;-57
2023/02/10 07:21:34;;;;;;;44.20;17.65;;;0.20;99.90;;;;;;5071374;28;20442;-56
2023/02/10 07:24:01;;;;;;;45.72;17.10;;;0.40;99.90;;;;;;5070195;28;20051;-56
2023/02/10 07:26:27;;;;;;;43.45;16.85;;;0.40;99.90;;;;;;5090684;28;20086;-55
2023/02/10 07:28:53;;;;;;;45.85;17.85;;;0.50;99.90;;;;;;5052224;28;20113;-55
2023/02/10 07:31:18;;;;;;;45.88;17.88;;;0.60;99.90;;;;;;5070093;28;20446;-56
2023/02/10 07:33:44;;;;;;;42.65;17.20;;;0.60;99.90;;;;;;5070896;28;20032;-55
2023/02/10 07:36:09;;;;;;;38.53;16.23;;;0.70;99.90;;;;;;5090049;28;20028;-55
2023/02/10 07:38:35;;;;;;;41.20;17.77;;;0.80;99.90;;;;;;5054407;28;20039;-54
2023/02/10 07:41:01;;;;;;;41.70;18.48;;;0.80;99.90;;;;;;5069765;28;20033;-56
2023/02/10 07:43:27;;;;;;;37.88;17.23;;;0.90;99.90;;;;;;5074194;28;20044;-53
2023/02/10 07:45:52;;;;;;;41.75;16.65;;;1.00;99.90;;;;;;5089780;28;20039;-54
2023/02/10 07:48:18;;;;;;;37.17;16.45;;;1.10;99.90;;;;;;5056790;28;20104;-55
2023/02/10 07:50:46;;;;;;;39.85;16.40;;;1.20;99.90;;;;;;5069567;28;20039;-56
2023/02/10 07:53:11;;;;;;;40.50;17.02;;;1.30;99.90;;;;;;5076556;28;20033;-56
2023/02/10 07:55:37;;;;;;;44.08;18.40;;;1.40;99.90;;;;;;5089646;28;20059;-53
2023/02/10 07:58:04;;;;;;;42.83;17.83;;;1.50;99.90;;;;;;5068538;28;20060;-55
2023/02/10 08:00:30;;;;;;;40.47;16.95;;;1.60;99.90;;;;;;5089875;28;20089;-56
2023/02/10 08:02:55;;;;;;;40.10;18.13;;;1.60;99.90;;;;;;5068480;28;20511;-55
2023/02/10 08:05:21;;;;;;;41.92;17.60;;;1.70;99.90;;;;;;5074877;28;20115;-56
2023/02/10 08:07:47;;;;;;;48.88;18.60;;;1.80;99.90;;;;;;5086874;28;20032;-53
2023/02/10 08:10:13;;;;;;;43.72;17.83;;;1.80;99.90;;;;;;5073565;28;20540;-50
2023/02/10 08:12:38;;;;;;;40.75;17.75;;;1.90;99.90;;;;;;5088102;28;20024;-56
2023/02/10 08:15:05;;;;;;;37.08;16.92;;;2.00;99.90;;;;;;5090293;28;20027;-52
2023/02/10 08:17:31;;;;;;;38.78;18.20;;;2.10;99.90;;;;;;5068038;28;20067;-54
2023/02/10 08:19:57;;;;;;;36.78;16.30;;;2.20;99.90;;;;;;5069856;28;20052;-54
2023/02/10 08:22:22;;;;;;;43.42;18.23;;;2.30;99.90;;;;;;5087098;28;20032;-55
2023/02/10 08:24:47;;;;;;;40.38;17.77;;;2.30;99.90;;;;;;5089988;28;20644;-56
2023/02/10 08:27:13;;;;;;;36.95;17.10;;;2.40;99.90;;;;;;5068111;28;20070;-53
2023/02/10 08:29:38;;;;;;;36.80;16.75;;;2.60;99.90;;;;;;5069578;28;20032;-55
2023/02/10 08:32:04;;;;;;;37.65;17.02;;;2.70;99.90;;;;;;5087120;28;20032;-54
2023/02/10 08:34:30;;;;;;;39.30;16.88;;;2.80;99.40;;;;;;5089737;28;20047;-53
2023/02/10 08:36:55;;;;;;;32.65;15.70;;;3.00;99.10;;;;;;5067930;28;20399;-52
2023/02/10 08:39:21;;;;;;;41.53;18.52;;;3.10;98.30;;;;;;5069482;28;20506;-53
2023/02/10 08:41:47;;;;;;;37.38;17.70;;;3.20;97.60;;;;;;5088674;28;20032;-57
2023/02/10 08:44:13;;;;;;;42.55;19.65;;;3.30;97.10;;;;;;5089074;28;20021;-52
2023/02/10 08:46:39;;;;;;;42.15;19.48;;;3.50;97.00;;;;;;5069551;28;20029;-54
2023/02/10 08:49:04;;;;;;;41.47;19.40;;;3.60;96.70;;;;;;5067875;28;20039;-53
2023/02/10 08:51:32;;;;;;;36.88;17.52;;;3.70;95.90;;;;;;5088385;28;20536;-56
2023/02/10 08:53:59;;;;;;;37.33;17.80;;;3.90;95.70;;;;;;5049399;28;20047;-55
2023/02/10 08:56:25;;;;;;;38.65;17.33;;;4.00;95.50;;;;;;5068310;28;20565;-56
2023/02/10 08:58:50;;;;;;;37.38;17.98;;;4.10;95.00;;;;;;5069350;28;20036;-56
2023/02/10 09:01:19;;;;;;;37.28;18.48;;;4.30;93.30;;;;;;5088355;28;20078;-55
2023/02/10 09:03:45;;;;;;;34.78;16.67;;;4.40;93.30;;;;;;5051152;28;20674;-54
2023/02/10 09:06:20;;;;;;;34.30;17.08;;;4.70;94.30;;;;;;5080208;28;20096;-56
2023/02/10 09:08:47;;;;;;;35.40;14.90;;;4.90;93.40;;;;;;5048973;28;20782;-55
2023/02/10 09:11:13;;;;;;;35.03;17.63;;;5.10;91.50;;;;;;5086816;28;20036;-54
2023/02/10 09:13:39;;;;;;;35.95;17.48;;;5.40;90.30;;;;;;5069031;28;20044;-55
2023/02/10 09:16:05;;;;;;;40.85;20.70;;;5.70;90.90;;;;;;5068795;28;20416;-55
2023/02/10 09:18:30;;;;;;;33.65;17.98;;;5.80;87.70;;;;;;5083366;28;20025;-54
2023/02/10 09:21:00;;;;;;;28.38;16.17;;;6.00;84.60;;;;;;5082695;28;20024;-55
2023/02/10 09:23:27;;;;;;;32.15;16.77;;;6.10;86.40;;;;;;5066957;28;20131;-55
2023/02/10 09:25:54;;;;;;;32.33;18.45;;;6.30;82.00;;;;;;5068545;28;20410;-53
2023/02/10 09:28:21;;;;;;;34.08;17.75;;;6.50;81.30;;;;;;5086409;28;20120;-51
2023/02/10 09:30:46;;;;;;;33.33;18.02;;;6.60;79.00;;;;;;5088857;28;20020;-56
2023/02/10 09:33:12;;;;;;;33.22;17.52;;;6.70;79.90;;;;;;5066970;28;20083;-56
2023/02/10 09:35:37;;;;;;;39.85;18.80;;;6.80;78.50;;;;;;5068346;28;20515;-53
2023/02/10 09:38:03;;;;;;;33.05;16.85;;;6.80;77.70;;;;;;5087698;28;20173;-54
2023/02/10 09:40:32;;;;;;;28.10;15.77;;;7.00;77.30;;;;;;5047938;28;20040;-55
2023/02/10 09:43:25;;;;;;;34.55;16.40;;;7.00;77.80;;;;;;5068079;28;20115;-56
2023/02/10 09:45:59;;;;;;;35.83;15.68;;;7.20;79.40;;;;;;5048362;28;20659;-56
2023/02/10 09:48:37;;;;;;;30.17;15.57;;;7.30;76.20;;;;;;5048452;28;20492;-54
2023/02/10 09:51:33;;;;;;;30.60;16.20;;;7.40;74.70;;;;;;5068131;28;20073;-55
2023/02/10 09:53:59;;;;;;;24.85;14.93;;;7.50;73.90;;;;;;5059909;28;20020;-56
2023/02/10 09:56:25;;;;;;;36.40;16.42;;;7.50;73.40;;;;;;5088269;28;20020;-52
2023/02/10 09:58:55;;;;;;;36.88;17.33;;;7.50;72.80;;;;;;5066574;28;20032;-55
2023/02/10 10:01:29;;;;;;;35.45;17.80;;;7.60;71.50;;;;;;5068128;28;20583;-56
2023/02/10 10:04:05;;;;;;;28.45;16.30;;;7.60;71.80;;;;;;5085818;28;20028;-56
2023/02/10 10:06:34;;;;;;;34.30;17.33;;;7.60;71.10;;;;;;5066038;28;20613;-54
2023/02/10 10:09:05;;;;;;;34.80;15.82;;;7.70;71.00;;;;;;5086247;28;20024;-54
2023/02/10 10:11:43;;;;;;;31.98;16.00;;;7.70;71.70;;;;;;5088244;28;20039;-55
2023/02/10 10:14:38;;;;;;;30.65;16.27;;;7.80;66.20;;;;;;5063959;28;20024;-55
2023/02/10 10:17:37;;;;;;;31.08;17.17;;;7.70;69.70;;;;;;5061830;28;20033;-48
2023/02/10 10:20:21;;;;;;;36.20;18.08;;;7.60;68.00;;;;;;5054623;28;20077;-49
2023/02/10 10:22:57;;;;;;;36.25;18.70;;;7.40;67.20;;;;;;5066822;28;20025;-46
2023/02/10 10:25:54;;;;;;;30.90;17.52;;;7.30;69.70;;;;;;5065155;28;20032;-47
2023/02/10 10:28:38;;;;;;;34.03;17.90;;;7.20;68.40;;;;;;5055388;28;20534;-48
2023/02/10 10:31:23;;;;;;;34.10;18.33;;;7.20;69.70;;;;;;5069519;28;20098;-51
2023/02/10 10:34:02;;;;;;;39.67;18.08;;;7.10;70.10;;;;;;5068375;28;20038;-45
2023/02/10 10:36:46;;;;;;;34.90;18.67;;;7.10;71.70;;;;;;5064356;28;20024;-50
2023/02/10 10:39:52;;;;;;;37.45;17.73;;;7.10;71.20;;;;;;5065325;28;20040;-50
2023/02/10 10:42:46;;;;;;;44.50;20.23;;;7.20;70.50;;;;;;4968621;28;20106;-52
2023/02/10 10:45:27;;;;;;;34.33;17.45;;;7.20;72.40;;;;;;5063985;28;20032;-52
2023/02/10 10:48:01;;;;;;;31.80;17.27;;;7.20;71.90;;;;;;5069280;28;20614;-47
2023/02/10 10:50:27;;;;;;;36.08;17.95;;;7.10;72.00;;;;;;5050721;28;20626;-51
2023/02/10 10:52:54;;;;;;;37.88;18.75;;;7.10;72.10;;;;;;5069526;28;20046;-48
2023/02/10 10:55:39;;;;;;;35.70;17.95;;;7.00;72.50;;;;;;5070184;28;20032;-49
2023/02/10 10:58:28;;;;;;;31.45;16.77;;;7.00;72.90;;;;;;5091527;28;20048;-48
2023/02/10 11:00:57;;;;;;;33.63;17.77;;;7.00;73.20;;;;;;5047222;28;20037;-50
2023/02/10 11:03:23;;;;;;;36.55;17.38;;;7.00;73.40;;;;;;5088995;28;20030;-47
2023/02/10 11:06:10;;;;;;;28.92;15.40;;;7.00;73.80;;;;;;5072591;28;20563;-49
2023/02/10 11:08:43;;;;;;;33.53;15.98;;;6.90;73.40;;;;;;5056119;28;20098;-48
2023/02/10 11:11:13;;;;;;;38.97;18.23;;;6.80;73.80;;;;;;5091367;28;20111;-47
2023/02/10 11:13:41;;;;;;;33.13;16.35;;;6.90;75.10;;;;;;5072995;28;20134;-49
2023/02/10 11:16:11;;;;;;;30.67;14.60;;;6.90;75.40;;;;;;5090833;28;20028;-50
2023/02/10 11:18:37;;;;;;;31.83;14.93;;;6.90;75.50;;;;;;5056583;28;20028;-55
2023/02/10 11:21:07;;;;;;;29.95;14.55;;;7.00;75.20;;;;;;5091270;28;20052;-47
2023/02/10 11:23:49;;;;;;;35.78;16.95;;;6.90;75.30;;;;;;5068843;28;20438;-47
2023/02/10 11:26:32;;;;;;;35.30;15.88;;;6.90;75.30;;;;;;5070967;28;20063;-51
2023/02/10 11:29:10;;;;;;;35.30;15.95;;;7.00;75.60;;;;;;5065662;28;20511;-47
2023/02/10 11:31:37;;;;;;;30.55;15.82;;;7.00;75.10;;;;;;5074437;28;20055;-49
2023/02/10 11:34:17;;;;;;;32.28;17.08;;;7.10;75.30;;;;;;5070931;28;20039;-52
2023/02/10 11:36:44;;;;;;;32.55;17.05;;;7.20;74.50;;;;;;5069123;28;20063;-48
2023/02/10 11:39:34;;;;;;;32.63;15.77;;;7.20;74.00;;;;;;5090701;28;20125;-52
2023/02/10 11:42:23;;;;;;;31.42;15.23;;;7.20;73.60;;;;;;5052286;28;20033;-46
2023/02/10 11:45:11;;;;;;;33.88;15.43;;;7.40;74.40;;;;;;5049182;28;20040;-49
2023/02/10 11:47:37;;;;;;;32.47;16.27;;;7.50;74.00;;;;;;5041900;28;20045;-48
2023/02/10 11:50:18;;;;;;;38.80;16.10;;;7.50;72.70;;;;;;5088772;28;20036;-51
2023/02/10 11:52:44;;;;;;;31.25;15.45;;;7.40;72.30;;;;;;5090290;28;20027;-46
2023/02/10 11:55:14;;;;;;;30.35;14.50;;;7.40;72.90;;;;;;5068395;28;20025;-48
2023/02/10 12:00:57;;;;;;;33.70;15.43;;;7.30;73.70;;;;;;5058615;28;20077;-48
2023/02/10 12:03:52;;;;;;;29.58;13.18;;;7.40;73.60;;;;;;5089877;28;20028;-51
2023/02/10 12:06:30;;;;;;;29.13;13.10;;;7.40;73.70;;;;;;5065036;28;20027;-48
2023/02/10 12:09:31;;;;;;;29.10;14.25;;;7.50;74.00;;;;;;5050117;28;20523;-51
2023/02/10 12:12:20;;;;;;;29.67;14.85;;;7.50;72.90;;;;;;5066914;28;20093;-49
2023/02/10 12:14:56;;;;;;;27.50;14.02;;;7.50;72.80;;;;;;5058675;28;20093;-52
2023/02/10 12:17:39;;;;;;;35.35;16.88;;;7.50;73.70;;;;;;5067820;28;20025;-51
2023/02/10 12:20:13;;;;;;;30.63;14.52;;;7.40;73.20;;;;;;5056585;28;20047;-50
2023/02/10 12:23:03;;;;;;;29.83;14.35;;;7.50;73.60;;;;;;5069639;28;20052;-51
2023/02/10 12:25:41;;;;;;;25.58;13.63;;;7.50;73.70;;;;;;5065348;28;20032;-49
2023/02/10 12:29:01;;;;;;;28.30;13.38;;;7.50;73.00;;;;;;5066542;28;20040;-49
2023/02/10 12:31:53;;;;;;;32.58;14.23;;;7.50;73.40;;;;;;5046889;28;20037;-50
2023/02/10 12:34:50;;;;;;;29.83;15.95;;;7.50;72.70;;;;;;5078762;28;20149;-51
2023/02/10 12:37:37;;;;;;;26.83;12.93;;;7.50;73.00;;;;;;5066353;28;20020;-49
2023/02/10 12:40:18;;;;;;;29.92;14.05;;;7.40;73.20;;;;;;5049362;28;20044;-47
2023/02/10 12:43:09;;;;;;;29.27;12.60;;;7.30;73.80;;;;;;5060186;28;20033;-48
2023/02/10 12:45:40;;;;;;;27.27;14.23;;;7.30;74.30;;;;;;5049268;28;20100;-50
2023/02/10 12:48:31;;;;;;;27.45;12.65;;;7.30;74.60;;;;;;5069915;28;20033;-52
2023/02/10 12:51:32;;;;;;;30.13;13.77;;;7.20;74.60;;;;;;5049250;28;20035;-53
2023/02/10 12:54:01;;;;;;;30.77;14.40;;;7.30;74.60;;;;;;5004229;28;20044;-52
2023/02/10 12:56:37;;;;;;;24.15;12.55;;;7.30;74.90;;;;;;5074883;28;20035;-49
2023/02/10 12:59:10;;;;;;;31.58;14.95;;;7.30;74.80;;;;;;5053124;28;20033;-47